Time;durP1;ratioP1;P1;durP2;ratioP2;P2;SDS_P1;SDS_P2;PMS_P1;PMS_P2;Temp;Humidity;BMP_temperature;BMP_pressure;BME280_temperature;BME280_humidity;BME280_pressure;Samples;Min_cycle;Max_cycle;Signal;HPM_P1;HPM_P2
2023/06/10 00:00:12;;;;;;;0.43;0.43;;;;;;;21.02;100.00;98877.94;4973706;28;20273;-67
2023/06/10 00:02:40;;;;;;;0.57;0.57;;;;;;;20.98;100.00;98880.91;4975790;28;20268;-67
2023/06/10 00:05:09;;;;;;;0.80;0.80;;;;;;;20.98;100.00;98875.72;4973505;28;20286;-67
2023/06/10 00:07:37;;;;;;;0.40;0.40;;;;;;;20.99;100.00;98877.38;4973168;28;20677;-67
2023/06/10 00:10:05;;;;;;;0.70;0.70;;;;;;;20.95;100.00;98876.78;4973426;28;20604;-67
2023/06/10 00:12:36;;;;;;;0.30;0.30;;;;;;;20.91;100.00;98873.59;4973785;28;20212;-67
2023/06/10 00:15:04;;;;;;;0.57;0.57;;;;;;;20.86;100.00;98873.16;4973619;28;20199;-67
2023/06/10 00:17:31;;;;;;;0.70;0.70;;;;;;;20.90;100.00;98884.16;4973514;28;20243;-67
2023/06/10 00:19:59;;;;;;;0.60;0.60;;;;;;;20.89;100.00;98878.13;4973522;28;20980;-67
2023/06/10 00:22:29;;;;;;;0.53;0.53;;;;;;;20.91;100.00;98871.00;4973552;28;20221;-67
2023/06/10 00:24:56;;;;;;;0.50;0.50;;;;;;;20.91;100.00;98875.38;4973497;28;20297;-67
2023/06/10 00:27:23;;;;;;;0.60;0.60;;;;;;;20.85;100.00;98863.69;4972954;28;20316;-67
2023/06/10 00:29:50;;;;;;;0.40;0.40;;;;;;;20.85;100.00;98874.09;4973298;28;20203;-67
2023/06/10 00:32:17;;;;;;;0.50;0.50;;;;;;;20.80;100.00;98878.03;4973016;28;20211;-67
2023/06/10 00:34:43;;;;;;;0.60;0.60;;;;;;;20.79;100.00;98873.75;4973551;28;20620;-67
2023/06/10 00:37:12;;;;;;;0.40;0.40;;;;;;;20.78;100.00;98874.69;4973106;28;20202;-67
2023/06/10 00:39:38;;;;;;;1.03;1.03;;;;;;;20.75;100.00;98881.00;4973049;28;20221;-67
2023/06/10 00:42:07;;;;;;;0.60;0.60;;;;;;;20.70;100.00;98869.28;4972913;28;20643;-67
2023/06/10 00:44:34;;;;;;;0.50;0.50;;;;;;;20.61;100.00;98876.06;4971187;28;20662;-67
2023/06/10 00:47:01;;;;;;;0.50;0.50;;;;;;;20.51;100.00;98880.34;4972926;28;20262;-67
2023/06/10 00:49:28;;;;;;;0.50;0.50;;;;;;;20.46;100.00;98863.41;4972285;28;20214;-68
2023/06/10 00:51:55;;;;;;;0.50;0.50;;;;;;;20.19;100.00;98822.97;4972787;28;20666;-67
2023/06/10 00:54:24;;;;;;;0.60;0.60;;;;;;;20.44;100.00;98871.38;4972451;28;20217;-67
2023/06/10 00:56:51;;;;;;;0.50;0.50;;;;;;;20.46;100.00;98866.00;4972946;28;21300;-67
2023/06/10 00:59:18;;;;;;;0.40;0.40;;;;;;;20.47;100.00;98868.50;4974148;28;20213;-67
2023/06/10 01:01:46;;;;;;;0.50;0.50;;;;;;;20.45;100.00;98867.81;4972667;28;20263;-67
2023/06/10 01:04:13;;;;;;;0.77;0.77;;;;;;;20.43;100.00;98880.13;4973402;28;20221;-67
2023/06/10 01:06:50;;;;;;;0.40;0.40;;;;;;;20.41;100.00;98871.59;4969855;28;20237;-67
2023/06/10 01:09:25;;;;;;;0.43;0.43;;;;;;;20.37;100.00;98871.00;4974935;28;20202;-67
2023/06/10 01:12:02;;;;;;;0.73;0.73;;;;;;;20.36;100.00;98864.16;4971068;28;20234;-67
2023/06/10 01:14:31;;;;;;;0.50;0.50;;;;;;;20.33;100.00;98873.97;4972303;28;20236;-67
2023/06/10 01:17:00;;;;;;;0.40;0.40;;;;;;;20.28;100.00;98876.13;4972309;28;20576;-67
2023/06/10 01:19:28;;;;;;;0.40;0.40;;;;;;;20.27;100.00;98877.06;4971123;28;20262;-67
2023/06/10 01:21:56;;;;;;;0.50;0.50;;;;;;;20.26;100.00;98877.97;4972153;28;20299;-67
2023/06/10 01:24:23;;;;;;;0.40;0.40;;;;;;;20.25;100.00;98871.94;4971986;28;20233;-67
2023/06/10 01:26:52;;;;;;;0.63;0.63;;;;;;;20.26;100.00;98877.97;4972061;28;20227;-67
2023/06/10 01:29:22;;;;;;;0.70;0.70;;;;;;;20.23;100.00;98879.03;4964089;28;20730;-67
2023/06/10 01:31:53;;;;;;;0.37;0.37;;;;;;;20.16;100.00;98884.84;4971865;28;20222;-67
2023/06/10 01:34:22;;;;;;;0.50;0.50;;;;;;;20.09;100.00;98875.84;4972701;28;20638;-67
2023/06/10 01:36:51;;;;;;;0.70;0.70;;;;;;;20.08;100.00;98879.41;4971647;28;20202;-67
2023/06/10 01:39:23;;;;;;;0.40;0.40;;;;;;;19.95;100.00;98873.47;4970618;28;20695;-67
2023/06/10 01:41:51;;;;;;;0.60;0.60;;;;;;;19.88;100.00;98876.56;4971232;28;20206;-67
2023/06/10 01:44:20;;;;;;;0.50;0.50;;;;;;;19.85;100.00;98876.78;4974495;28;20287;-67
2023/06/10 01:46:46;;;;;;;0.40;0.40;;;;;;;19.84;100.00;98882.94;4972130;28;20252;-67
2023/06/10 01:49:13;;;;;;;0.63;0.63;;;;;;;19.73;100.00;98850.88;4971905;28;20305;-67
2023/06/10 01:51:40;;;;;;;0.70;0.70;;;;;;;19.84;100.00;98866.50;4971880;28;20664;-67
2023/06/10 01:54:07;;;;;;;0.50;0.50;;;;;;;19.84;100.00;98867.31;4971246;28;20240;-67
2023/06/10 01:56:35;;;;;;;0.57;0.57;;;;;;;19.81;100.00;98871.91;4971653;28;20200;-67
2023/06/10 01:59:02;;;;;;;0.80;0.80;;;;;;;19.77;100.00;98871.31;4971154;28;20655;-67
2023/06/10 02:01:29;;;;;;;0.60;0.60;;;;;;;19.77;100.00;98866.13;4975078;28;20677;-67
2023/06/10 02:03:56;;;;;;;0.50;0.50;;;;;;;19.78;100.00;98867.78;4971383;28;20210;-67
2023/06/10 02:06:23;;;;;;;0.40;0.40;;;;;;;19.77;100.00;98868.72;4971045;28;20315;-67
2023/06/10 02:08:50;;;;;;;0.50;0.50;;;;;;;19.76;100.00;98872.28;4971829;28;20202;-67
2023/06/10 02:11:17;;;;;;;0.50;0.50;;;;;;;19.71;100.00;98866.59;4971420;28;20261;-67
2023/06/10 02:13:45;;;;;;;0.40;0.40;;;;;;;19.79;100.00;98874.66;4972208;28;20578;-67
2023/06/10 02:16:12;;;;;;;0.40;0.40;;;;;;;19.78;100.00;98878.19;4971147;28;20213;-67
2023/06/10 02:18:40;;;;;;;0.50;0.50;;;;;;;19.77;100.00;98876.53;4971811;28;20206;-67
2023/06/10 02:21:07;;;;;;;0.40;0.40;;;;;;;19.77;100.00;98880.94;4970928;28;20296;-67
2023/06/10 02:23:34;;;;;;;1.17;0.77;;;;;;;19.76;100.00;98880.09;4971407;28;20702;-67
2023/06/10 02:26:00;;;;;;;0.57;0.57;;;;;;;19.77;100.00;98881.72;4971242;28;20673;-67
2023/06/10 02:28:27;;;;;;;0.40;0.40;;;;;;;19.75;100.00;98882.81;4970204;28;20246;-67
2023/06/10 02:30:56;;;;;;;0.50;0.50;;;;;;;19.76;100.00;98885.31;4971323;28;20212;-67
2023/06/10 02:33:24;;;;;;;0.43;0.43;;;;;;;19.73;100.00;98890.72;4975551;28;20685;-67
2023/06/10 02:35:51;;;;;;;0.67;0.67;;;;;;;19.71;100.00;98892.59;4974999;28;20227;-67
2023/06/10 02:38:18;;;;;;;0.57;0.57;;;;;;;19.67;100.00;98886.00;4973810;28;20216;-68
2023/06/10 02:40:44;;;;;;;0.50;0.50;;;;;;;19.67;100.00;98888.59;4974896;28;20712;-67
2023/06/10 02:43:11;;;;;;;0.90;0.90;;;;;;;19.66;100.00;98881.72;4975585;28;20701;-67
2023/06/10 02:45:38;;;;;;;0.53;0.53;;;;;;;19.71;100.00;98891.81;4974821;28;20209;-67
2023/06/10 02:48:06;;;;;;;0.60;0.60;;;;;;;19.69;100.00;98894.50;4974408;28;20280;-67
2023/06/10 02:50:33;;;;;;;0.43;0.43;;;;;;;19.60;100.00;98871.78;4974706;28;20254;-67
2023/06/10 02:53:00;;;;;;;0.40;0.40;;;;;;;19.68;100.00;98889.41;4974646;28;20210;-67
2023/06/10 02:55:27;;;;;;;0.50;0.50;;;;;;;19.69;100.00;98898.88;4973553;28;20247;-67
2023/06/10 02:57:55;;;;;;;0.70;0.70;;;;;;;19.72;100.00;98894.28;4975274;28;20196;-67
2023/06/10 03:00:22;;;;;;;0.40;0.40;;;;;;;19.75;100.00;98888.84;4974462;28;20236;-67
2023/06/10 03:02:49;;;;;;;0.50;0.50;;;;;;;19.77;100.00;98886.13;4971902;28;20309;-67
2023/06/10 03:05:17;;;;;;;0.60;0.60;;;;;;;19.78;100.00;98896.41;4974550;28;20718;-67
2023/06/10 03:07:46;;;;;;;0.33;0.33;;;;;;;19.82;100.00;98895.22;4977825;28;20231;-67
2023/06/10 03:10:13;;;;;;;0.30;0.30;;;;;;;19.80;100.00;98891.94;4974264;28;20214;-67
2023/06/10 03:12:39;;;;;;;0.60;0.60;;;;;;;19.84;100.00;98897.69;4974966;28;20220;-67
2023/06/10 03:15:07;;;;;;;0.30;0.30;;;;;;;19.86;100.00;98901.88;4974223;28;20216;-67
2023/06/10 03:17:34;;;;;;;0.70;0.70;;;;;;;19.89;100.00;98912.03;4974297;28;20665;-67
2023/06/10 03:20:01;;;;;;;0.40;0.40;;;;;;;19.84;100.00;98893.34;4974016;28;20214;-67
2023/06/10 03:22:29;;;;;;;0.50;0.50;;;;;;;19.95;100.00;98899.50;4974305;28;20221;-70
2023/06/10 03:24:57;;;;;;;0.73;0.73;;;;;;;19.93;100.00;98897.81;4974598;28;20233;-67
2023/06/10 03:27:24;;;;;;;0.70;0.70;;;;;;;19.98;100.00;98899.25;4973830;28;20233;-67
2023/06/10 03:29:50;;;;;;;0.60;0.60;;;;;;;19.99;100.00;98896.56;4974028;28;20206;-68
2023/06/10 03:32:17;;;;;;;0.67;0.67;;;;;;;19.98;100.00;98909.66;4973994;28;20197;-67
2023/06/10 03:34:45;;;;;;;0.50;0.50;;;;;;;19.99;100.00;98906.13;4973794;28;20201;-67
2023/06/10 03:37:12;;;;;;;0.43;0.43;;;;;;;20.00;100.00;98907.78;4975065;28;20228;-67
2023/06/10 03:39:40;;;;;;;0.47;0.47;;;;;;;19.93;100.00;98897.81;4971731;28;20676;-67
2023/06/10 03:42:07;;;;;;;0.30;0.30;;;;;;;19.92;100.00;98898.78;4972818;28;20638;-67
2023/06/10 03:44:34;;;;;;;0.50;0.50;;;;;;;19.92;100.00;98906.59;4973436;28;20205;-67
2023/06/10 03:47:01;;;;;;;0.57;0.57;;;;;;;19.89;100.00;98896.44;4973731;28;20308;-67
2023/06/10 03:49:29;;;;;;;0.67;0.67;;;;;;;19.95;100.00;98896.91;4973631;28;20214;-67
2023/06/10 03:51:55;;;;;;;0.40;0.40;;;;;;;19.95;100.00;98889.09;4972101;28;20211;-67
2023/06/10 03:54:23;;;;;;;0.37;0.37;;;;;;;20.02;100.00;98900.69;4969287;28;20568;-67
2023/06/10 03:56:51;;;;;;;0.50;0.50;;;;;;;19.99;100.00;98895.72;4973415;28;20393;-67
2023/06/10 03:59:18;;;;;;;0.73;0.73;;;;;;;20.02;100.00;98895.50;4973683;28;20292;-67
2023/06/10 04:01:45;;;;;;;0.40;0.40;;;;;;;20.05;100.00;98903.06;4973989;28;20750;-67
2023/06/10 04:04:16;;;;;;;0.90;0.90;;;;;;;20.05;100.00;98900.44;4969838;28;20233;-67
2023/06/10 04:06:44;;;;;;;0.40;0.40;;;;;;;20.03;100.00;98903.19;4973179;28;20314;-67
2023/06/10 04:09:11;;;;;;;0.30;0.30;;;;;;;20.04;100.00;98896.19;4973607;28;20576;-67
2023/06/10 04:11:37;;;;;;;0.50;0.50;;;;;;;20.04;100.00;98899.63;4974577;28;20209;-67
2023/06/10 04:14:06;;;;;;;0.40;0.40;;;;;;;20.05;100.00;98910.84;4976826;28;20572;-67
2023/06/10 04:16:32;;;;;;;0.50;0.50;;;;;;;19.98;100.00;98904.47;4973482;28;20311;-67
2023/06/10 04:19:00;;;;;;;0.50;0.50;;;;;;;19.97;100.00;98902.81;4973263;28;20216;-67
2023/06/10 04:21:27;;;;;;;0.63;0.63;;;;;;;20.01;100.00;98907.66;4973771;28;20666;-67
2023/06/10 04:23:54;;;;;;;0.60;0.60;;;;;;;19.97;100.00;98913.22;4973124;28;20213;-67
2023/06/10 04:26:21;;;;;;;0.60;0.60;;;;;;;19.98;100.00;98907.06;4972979;28;20671;-67
2023/06/10 04:28:48;;;;;;;0.57;0.57;;;;;;;20.03;100.00;98902.34;4970746;28;20236;-67
2023/06/10 04:31:16;;;;;;;0.50;0.50;;;;;;;20.05;100.00;98895.25;4972481;28;20683;-67
2023/06/10 04:33:43;;;;;;;0.50;0.50;;;;;;;20.10;100.00;98903.53;4973144;28;20213;-67
2023/06/10 04:36:10;;;;;;;1.53;1.53;;;;;;;20.10;100.00;98898.31;4972650;28;20212;-67
2023/06/10 04:38:36;;;;;;;0.60;0.60;;;;;;;20.10;100.00;98908.72;4972108;28;20698;-68
2023/06/10 04:41:03;;;;;;;0.50;0.50;;;;;;;20.07;100.00;98911.56;4971551;28;20211;-68
2023/06/10 04:43:30;;;;;;;0.60;0.60;;;;;;;19.93;100.00;98903.03;4973360;28;20311;-68
2023/06/10 04:45:57;;;;;;;0.63;0.63;;;;;;;19.80;100.00;98901.50;4972940;28;20212;-67
2023/06/10 04:48:25;;;;;;;1.10;1.10;;;;;;;19.80;100.00;98891.94;4971464;28;20222;-68
2023/06/10 04:50:52;;;;;;;0.40;0.40;;;;;;;19.84;100.00;98893.34;4975498;28;20207;-67
2023/06/10 04:53:20;;;;;;;0.80;0.80;;;;;;;19.89;100.00;98895.59;4972240;28;20213;-68
2023/06/10 04:55:48;;;;;;;0.50;0.50;;;;;;;19.93;100.00;98903.03;4971138;28;20205;-68
2023/06/10 04:58:15;;;;;;;0.50;0.50;;;;;;;19.92;100.00;98906.59;4972503;28;20205;-67
2023/06/10 05:00:43;;;;;;;0.43;0.43;;;;;;;19.98;100.00;98909.66;4972010;28;20255;-68
2023/06/10 05:03:10;;;;;;;0.30;0.30;;;;;;;20.06;100.00;98902.13;4971908;28;20209;-68
2023/06/10 05:05:38;;;;;;;0.50;0.50;;;;;;;20.13;100.00;98904.09;4972196;28;20222;-68
2023/06/10 05:08:05;;;;;;;0.40;0.40;;;;;;;20.22;100.00;98907.81;4969958;28;20225;-68
2023/06/10 05:10:32;;;;;;;0.60;0.60;;;;;;;20.28;100.00;98909.97;4971776;28;20273;-70
2023/06/10 05:12:58;;;;;;;0.50;0.50;;;;;;;20.36;100.00;98907.56;4971940;28;20304;-69
2023/06/10 05:15:25;;;;;;;0.40;0.40;;;;;;;20.42;100.00;98907.91;4971871;28;20293;-69
2023/06/10 05:17:52;;;;;;;0.60;0.60;;;;;;;20.47;100.00;98902.38;4972156;28;20678;-69
2023/06/10 05:20:19;;;;;;;0.70;0.70;;;;;;;20.56;100.00;98906.84;4964693;28;20657;-69
2023/06/10 05:22:47;;;;;;;0.30;0.30;;;;;;;20.48;100.00;98888.41;4974726;28;20203;-69
2023/06/10 05:25:14;;;;;;;0.33;0.33;;;;;;;20.54;100.00;98890.53;4973491;28;20210;-68
2023/06/10 05:27:42;;;;;;;0.40;0.40;;;;;;;20.67;100.00;98909.44;4967360;28;20231;-69
2023/06/10 05:30:10;;;;;;;0.70;0.70;;;;;;;20.75;100.00;98901.00;4969599;28;20707;-69
2023/06/10 05:32:37;;;;;;;0.40;0.40;;;;;;;20.79;100.00;98903.25;4972163;28;20212;-68
2023/06/10 05:35:06;;;;;;;0.87;0.87;;;;;;;20.72;100.00;98891.66;4971651;28;20221;-69
2023/06/10 05:37:34;;;;;;;0.40;0.40;;;;;;;20.85;100.00;98901.94;4971632;28;20281;-69
2023/06/10 05:40:03;;;;;;;0.57;0.57;;;;;;;20.80;100.00;98901.47;4970770;28;20757;-69
2023/06/10 05:42:30;;;;;;;0.30;0.30;;;;;;;20.78;100.00;98901.59;4971522;28;20247;-69
2023/06/10 05:44:57;;;;;;;0.47;0.47;;;;;;;20.81;100.00;98905.72;4970730;28;20206;-69
2023/06/10 05:47:24;;;;;;;0.63;0.63;;;;;;;20.85;100.00;98892.34;4971167;28;20238;-69
2023/06/10 05:49:51;;;;;;;1.10;0.43;;;;;;;20.92;100.00;98906.53;4971462;28;20709;-69
2023/06/10 05:52:18;;;;;;;0.50;0.50;;;;;;;21.00;100.00;98912.91;4971247;28;20258;-69
2023/06/10 05:54:45;;;;;;;0.47;0.47;;;;;;;21.07;100.00;98911.44;4968824;28;20219;-70
2023/06/10 05:57:13;;;;;;;0.40;0.40;;;;;;;21.19;100.00;98915.72;4970038;28;20199;-69
2023/06/10 05:59:40;;;;;;;0.50;0.50;;;;;;;21.35;100.00;98910.91;4971239;28;20254;-66
2023/06/10 06:02:07;;;;;;;0.70;0.70;;;;;;;21.49;100.00;98917.59;4970563;28;20217;-67
2023/06/10 06:04:35;;;;;;;0.47;0.47;;;;;;;21.67;100.00;98914.28;4974170;28;20285;-70
2023/06/10 06:07:02;;;;;;;0.60;0.60;;;;;;;21.95;100.00;98911.06;4970817;28;20214;-70
2023/06/10 06:09:28;;;;;;;0.73;0.73;;;;;;;22.46;100.00;98915.38;4971972;28;20214;-69
2023/06/10 06:11:55;;;;;;;0.40;0.40;;;;;;;22.73;100.00;98923.47;4971027;28;20580;-69
2023/06/10 06:14:23;;;;;;;0.30;0.30;;;;;;;22.94;98.82;98918.97;4971751;28;20663;-67
2023/06/10 06:16:50;;;;;;;2.07;0.50;;;;;;;23.22;96.67;98919.97;4970917;28;20288;-71
2023/06/10 06:19:17;;;;;;;0.33;0.33;;;;;;;23.45;93.11;98916.13;4972541;28;20295;-71
2023/06/10 06:21:43;;;;;;;0.40;0.40;;;;;;;23.63;93.39;98911.00;4971827;28;20671;-71
2023/06/10 06:24:10;;;;;;;0.50;0.50;;;;;;;23.83;91.68;98915.25;4970993;28;20211;-71
2023/06/10 06:26:37;;;;;;;0.77;0.53;;;;;;;24.02;90.94;98915.19;4969376;28;20207;-71
2023/06/10 06:29:04;;;;;;;0.63;0.63;;;;;;;24.15;91.51;98916.69;4970101;28;20658;-71
2023/06/10 06:31:32;;;;;;;0.33;0.33;;;;;;;24.29;88.28;98916.22;4970878;28;20684;-71
2023/06/10 06:33:59;;;;;;;0.30;0.30;;;;;;;24.34;88.83;98914.00;4969917;28;20647;-70
2023/06/10 06:36:26;;;;;;;0.50;0.50;;;;;;;24.52;87.16;98912.25;4969806;28;20204;-70
2023/06/10 06:38:52;;;;;;;0.80;0.80;;;;;;;24.72;86.69;98913.78;4971915;28;20510;-64
2023/06/10 06:41:19;;;;;;;0.70;0.70;;;;;;;24.95;81.71;98911.59;4970534;28;20298;-64
2023/06/10 06:43:46;;;;;;;0.40;0.40;;;;;;;25.11;82.77;98908.31;4971521;28;20262;-64
2023/06/10 06:46:13;;;;;;;2.20;0.60;;;;;;;25.48;83.83;98911.59;4970427;28;20203;-64
2023/06/10 06:48:41;;;;;;;0.40;0.40;;;;;;;25.72;82.43;98898.66;4970955;28;20249;-64
2023/06/10 06:51:08;;;;;;;0.40;0.40;;;;;;;25.98;77.24;98910.00;4971171;28;20211;-64
2023/06/10 06:53:35;;;;;;;0.33;0.33;;;;;;;25.92;75.84;98905.38;4970253;28;20210;-64
2023/06/10 06:56:02;;;;;;;0.50;0.50;;;;;;;25.89;75.03;98903.06;4970902;28;20207;-64
2023/06/10 06:58:29;;;;;;;0.40;0.40;;;;;;;25.90;76.62;98901.25;4969780;28;20199;-64
2023/06/10 07:00:56;;;;;;;0.40;0.40;;;;;;;26.06;77.48;98902.19;4966446;28;20200;-63
2023/06/10 07:03:23;;;;;;;0.50;0.50;;;;;;;26.16;75.45;98880.22;4970380;28;20219;-64
2023/06/10 07:05:51;;;;;;;0.40;0.40;;;;;;;26.35;74.90;98895.75;4970350;28;20207;-64
2023/06/10 07:08:17;;;;;;;0.53;0.53;;;;;;;26.39;74.68;98892.66;4970537;28;20687;-64
2023/06/10 07:10:44;;;;;;;0.37;0.37;;;;;;;26.14;74.15;98892.69;4970743;28;20651;-64
2023/06/10 07:13:11;;;;;;;0.50;0.50;;;;;;;26.07;75.17;98892.50;4971659;28;20583;-64
2023/06/10 07:15:39;;;;;;;0.50;0.50;;;;;;;26.02;76.34;98885.06;4971366;28;20578;-64
2023/06/10 07:18:06;;;;;;;0.40;0.40;;;;;;;26.09;76.01;98883.47;4972771;28;20262;-64
2023/06/10 07:20:32;;;;;;;0.30;0.30;;;;;;;26.25;75.33;98890.63;4974714;28;20200;-63
2023/06/10 07:23:01;;;;;;;0.50;0.50;;;;;;;26.60;78.20;98879.09;4974737;28;20223;-64
2023/06/10 07:25:27;;;;;;;0.50;0.50;;;;;;;27.05;74.08;98878.69;4976536;28;20210;-63
2023/06/10 07:27:54;;;;;;;2.50;0.47;;;;;;;27.38;72.40;98874.28;4974154;28;20520;-64
2023/06/10 07:30:21;;;;;;;0.40;0.40;;;;;;;27.77;69.24;98877.88;4972543;28;20211;-64
2023/06/10 07:32:47;;;;;;;0.40;0.40;;;;;;;28.12;67.57;98881.94;4973169;28;20294;-65
2023/06/10 07:35:15;;;;;;;0.30;0.30;;;;;;;28.30;68.57;98879.91;4974453;28;20211;-64
2023/06/10 07:37:41;;;;;;;0.37;0.37;;;;;;;28.48;68.85;98877.84;4974080;28;20207;-64
2023/06/10 07:40:10;;;;;;;0.20;0.20;;;;;;;28.55;64.81;98883.25;4973811;28;20203;-64
2023/06/10 07:42:37;;;;;;;0.43;0.40;;;;;;;28.46;63.34;98884.28;4974078;28;20200;-64
2023/06/10 07:45:05;;;;;;;0.50;0.50;;;;;;;28.48;65.02;98877.00;4976917;28;20754;-64
2023/06/10 07:47:33;;;;;;;0.47;0.47;;;;;;;28.79;64.74;98875.19;4974234;28;20200;-64
2023/06/10 07:50:00;;;;;;;0.35;0.35;;;;;;;29.06;64.21;98879.16;4975663;28;20207;-64
2023/06/10 07:52:28;;;;;;;0.30;0.30;;;;;;;29.15;66.20;98878.91;4974224;28;20199;-64
2023/06/10 07:54:55;;;;;;;0.68;0.68;;;;;;;29.23;62.65;98882.50;4973100;28;20290;-64
2023/06/10 07:57:23;;;;;;;0.40;0.40;;;;;;;29.50;62.42;98877.50;4974578;28;20207;-64
2023/06/10 07:59:50;;;;;;;0.55;0.55;;;;;;;29.71;63.93;98866.25;4974088;28;20556;-64
2023/06/10 08:02:16;;;;;;;0.40;0.40;;;;;;;29.97;59.19;98879.88;4973864;28;20214;-64
2023/06/10 08:04:43;;;;;;;0.40;0.40;;;;;;;30.23;59.98;98889.16;4973819;28;20734;-65
2023/06/10 08:07:10;;;;;;;0.57;0.57;;;;;;;30.45;58.59;98877.66;4973600;28;20211;-64
2023/06/10 08:09:37;;;;;;;0.40;0.40;;;;;;;30.60;58.61;98884.56;4973930;28;20222;-63
2023/06/10 08:12:04;;;;;;;0.40;0.40;;;;;;;30.66;58.32;98888.31;4973778;28;20211;-63
2023/06/10 08:14:32;;;;;;;0.40;0.40;;;;;;;30.55;55.25;98886.13;4974249;28;20207;-64
2023/06/10 08:16:59;;;;;;;0.30;0.30;;;;;;;30.17;54.82;98883.63;4973660;28;20208;-64
2023/06/10 08:19:26;;;;;;;0.45;0.45;;;;;;;30.15;56.49;98874.19;4974002;28;20647;-63
2023/06/10 08:21:52;;;;;;;0.47;0.47;;;;;;;30.12;57.28;98882.50;4973752;28;20203;-64
2023/06/10 08:24:19;;;;;;;0.57;0.57;;;;;;;29.99;57.24;98877.84;4974161;28;20210;-64
2023/06/10 08:26:46;;;;;;;0.50;0.50;;;;;;;30.02;55.93;98877.50;4973619;28;20564;-64
2023/06/10 08:29:13;;;;;;;0.50;0.50;;;;;;;30.11;56.40;98878.22;4972425;28;20227;-64
2023/06/10 08:31:44;;;;;;;0.40;0.40;;;;;;;30.04;56.27;98877.31;4979525;28;20203;-64
2023/06/10 08:34:11;;;;;;;0.40;0.40;;;;;;;30.10;56.10;98874.78;4973376;28;20627;-64
2023/06/10 08:36:38;;;;;;;0.60;0.60;;;;;;;30.20;55.38;98877.13;4973703;28;20203;-64
2023/06/10 08:39:05;;;;;;;0.45;0.45;;;;;;;30.29;55.54;98878.66;4973191;28;20354;-64
2023/06/10 08:41:36;;;;;;;0.68;0.68;;;;;;;30.29;56.18;98877.84;4973688;28;20211;-64
2023/06/10 08:44:09;;;;;;;0.40;0.40;;;;;;;30.50;55.87;98878.75;4973097;28;20298;-64
2023/06/10 08:46:37;;;;;;;3.00;0.47;;;;;;;30.41;55.32;98873.75;4972953;28;20210;-63
2023/06/10 08:49:08;;;;;;;0.57;0.57;;;;;;;30.32;55.32;98875.66;4973208;28;20254;-64
2023/06/10 08:51:36;;;;;;;0.35;0.35;;;;;;;30.33;58.30;98872.00;4974754;28;20278;-64
2023/06/10 08:54:11;;;;;;;0.88;0.43;;;;;;;30.12;54.97;98864.81;4972457;28;20242;-64
2023/06/10 08:56:40;;;;;;;0.40;0.40;;;;;;;29.89;55.01;98871.22;4973487;28;20602;-64
2023/06/10 08:59:08;;;;;;;0.40;0.40;;;;;;;29.96;57.21;98864.19;4973076;28;20206;-64
2023/06/10 09:01:35;;;;;;;0.40;0.40;;;;;;;29.92;55.54;98866.38;4973581;28;20214;-64
2023/06/10 09:04:03;;;;;;;0.52;0.52;;;;;;;29.63;55.48;98863.66;4972954;28;20635;-64
2023/06/10 09:06:33;;;;;;;0.35;0.35;;;;;;;29.60;58.65;98861.38;4972959;28;20199;-64
2023/06/10 09:09:01;;;;;;;0.38;0.38;;;;;;;29.59;56.77;98855.31;4972629;28;20270;-64
2023/06/10 09:11:27;;;;;;;0.40;0.40;;;;;;;29.69;57.84;98858.47;4973045;28;20200;-63
2023/06/10 09:13:54;;;;;;;0.40;0.40;;;;;;;29.59;58.37;98854.47;4973042;28;20251;-64
2023/06/10 09:16:21;;;;;;;0.50;0.50;;;;;;;29.50;59.70;98850.28;4972418;28;20686;-64
2023/06/10 09:18:48;;;;;;;0.68;0.68;;;;;;;29.25;61.06;98854.13;4973087;28;20199;-64
2023/06/10 09:21:15;;;;;;;2.67;0.70;;;;;;;29.04;60.59;98850.31;4972941;28;20627;-64
2023/06/10 09:23:44;;;;;;;0.50;0.50;;;;;;;28.78;62.72;98849.00;4972853;28;20667;-64
2023/06/10 09:26:11;;;;;;;1.50;0.60;;;;;;;28.68;63.23;98851.88;4972732;28;20199;-64
2023/06/10 09:28:39;;;;;;;0.60;0.60;;;;;;;28.59;61.47;98855.53;4972877;28;20318;-64
2023/06/10 09:31:07;;;;;;;0.30;0.30;;;;;;;28.37;60.20;98853.69;4972461;28;20250;-64
2023/06/10 09:33:37;;;;;;;0.40;0.40;;;;;;;28.17;60.32;98855.91;4971507;28;20575;-63
2023/06/10 09:36:04;;;;;;;0.20;0.20;;;;;;;27.91;59.49;98855.31;4972449;28;20211;-64
2023/06/10 09:38:32;;;;;;;0.20;0.20;;;;;;;27.71;57.74;98852.22;4972367;28;20204;-64
2023/06/10 09:41:01;;;;;;;0.40;0.40;;;;;;;27.64;57.57;98854.69;4971846;28;20204;-64
2023/06/10 09:43:41;;;;;;;0.73;0.73;;;;;;;27.30;59.81;98845.34;4972222;28;20751;-63
2023/06/10 09:46:08;;;;;;;0.37;0.37;;;;;;;27.61;61.78;98846.31;4972726;28;20650;-63
2023/06/10 09:48:37;;;;;;;0.23;0.23;;;;;;;27.97;59.84;98847.53;4972320;28;20223;-63
2023/06/10 09:51:09;;;;;;;0.60;0.60;;;;;;;28.12;60.18;98845.88;4972338;28;20294;-64
2023/06/10 09:53:36;;;;;;;0.63;0.63;;;;;;;28.07;61.88;98835.03;4970825;28;20453;-67
2023/06/10 09:56:05;;;;;;;0.73;0.73;;;;;;;28.47;60.00;98841.91;4974070;28;20207;-68
2023/06/10 09:58:36;;;;;;;0.45;0.45;;;;;;;28.67;58.28;98843.13;4966196;28;20195;-68
2023/06/10 10:01:06;;;;;;;0.30;0.30;;;;;;;28.40;57.49;98854.13;4970300;28;20227;-69
2023/06/10 10:03:32;;;;;;;0.30;0.30;;;;;;;28.55;57.84;98852.41;4972644;28;20210;-68
2023/06/10 10:06:01;;;;;;;0.33;0.33;;;;;;;28.75;60.61;98842.28;4972357;28;20208;-67
2023/06/10 10:08:27;;;;;;;0.30;0.30;;;;;;;28.87;57.49;98837.41;4971598;28;20358;-68
2023/06/10 10:10:54;;;;;;;0.40;0.40;;;;;;;28.71;57.57;98846.25;4972027;28;20250;-68
2023/06/10 10:13:24;;;;;;;0.50;0.50;;;;;;;28.89;57.54;98851.22;4971486;28;20207;-68
2023/06/10 10:15:51;;;;;;;0.60;0.60;;;;;;;29.07;57.28;98844.69;4970676;28;20195;-68
2023/06/10 10:18:28;;;;;;;0.70;0.70;;;;;;;29.26;55.80;98842.56;4962865;28;20214;-68
2023/06/10 10:20:56;;;;;;;0.40;0.40;;;;;;;29.28;55.45;98840.56;4970852;28;20199;-67
2023/06/10 10:23:30;;;;;;;0.35;0.35;;;;;;;29.31;54.93;98842.84;4970927;28;20659;-68
2023/06/10 10:26:01;;;;;;;0.30;0.30;;;;;;;29.40;55.46;98833.88;4971342;28;20753;-68
2023/06/10 10:28:38;;;;;;;0.28;0.28;;;;;;;29.59;54.72;98838.63;4970540;28;20325;-68
2023/06/10 10:31:11;;;;;;;0.50;0.50;;;;;;;29.77;55.25;98846.19;4970477;28;20706;-68
2023/06/10 10:33:47;;;;;;;0.35;0.35;;;;;;;29.53;53.31;98844.63;4971124;28;20199;-68
2023/06/10 10:36:15;;;;;;;0.60;0.60;;;;;;;29.31;53.27;98834.91;4969273;28;20207;-68
2023/06/10 10:38:44;;;;;;;0.43;0.43;;;;;;;28.93;54.45;98832.25;4969549;28;20207;-68
2023/06/10 10:41:11;;;;;;;0.40;0.40;;;;;;;28.84;54.51;98827.19;4971410;28;20211;-68
2023/06/10 10:43:39;;;;;;;0.40;0.40;;;;;;;28.57;55.54;98831.13;4970681;28;20258;-68
2023/06/10 10:46:14;;;;;;;0.50;0.50;;;;;;;28.71;55.88;98826.97;4972822;28;20323;-68
2023/06/10 10:48:42;;;;;;;1.37;0.53;;;;;;;28.94;57.39;98833.91;4970210;28;20233;-68
2023/06/10 10:51:09;;;;;;;0.40;0.40;;;;;;;28.79;55.75;98825.06;4970759;28;20266;-68
2023/06/10 10:53:37;;;;;;;0.43;0.43;;;;;;;28.51;56.54;98826.56;4974519;28;20228;-67
2023/06/10 10:56:07;;;;;;;0.50;0.50;;;;;;;28.40;55.67;98829.59;4971251;28;20214;-68
2023/06/10 10:58:34;;;;;;;0.53;0.40;;;;;;;28.37;56.86;98829.94;4974429;28;20207;-68
2023/06/10 11:01:11;;;;;;;0.30;0.30;;;;;;;28.51;56.48;98837.09;4974878;28;20638;-68
2023/06/10 11:03:44;;;;;;;0.47;0.47;;;;;;;28.35;57.03;98830.09;4975103;28;20222;-68
2023/06/10 11:06:14;;;;;;;0.50;0.50;;;;;;;28.34;56.24;98827.63;4974899;28;20203;-68
2023/06/10 11:08:49;;;;;;;0.50;0.50;;;;;;;28.06;57.24;98820.19;4974996;28;20299;-69
2023/06/10 11:11:21;;;;;;;0.40;0.40;;;;;;;27.88;58.12;98819.59;4973007;28;20289;-69
2023/06/10 11:14:08;;;;;;;0.30;0.30;;;;;;;27.66;58.78;98799.22;4975303;28;20705;-68
2023/06/10 11:16:42;;;;;;;3.27;0.80;;;;;;;27.58;59.10;98817.69;4977984;28;20289;-68
2023/06/10 11:19:09;;;;;;;0.60;0.60;;;;;;;27.36;60.04;98815.72;4974666;28;20755;-67
2023/06/10 11:22:00;;;;;;;0.50;0.50;;;;;;;27.47;59.30;98820.66;4974542;28;20239;-68
2023/06/10 11:24:27;;;;;;;0.30;0.30;;;;;;;27.36;59.75;98808.66;4962696;28;20203;-68
2023/06/10 11:26:54;;;;;;;0.50;0.50;;;;;;;27.48;59.52;98801.25;4974682;28;20662;-68
2023/06/10 11:29:21;;;;;;;0.30;0.30;;;;;;;27.73;59.97;98792.28;4974190;28;20219;-68
2023/06/10 11:31:52;;;;;;;0.43;0.40;;;;;;;27.92;56.96;98799.78;4973996;28;20635;-67